Time;durP1;ratioP1;P1;durP2;ratioP2;P2;SDS_P1;SDS_P2;PMS_P1;PMS_P2;Temp;Humidity;BMP_temperature;BMP_pressure;BME280_temperature;BME280_humidity;BME280_pressure;Samples;Min_cycle;Max_cycle;Signal;HPM_P1;HPM_P2
2021/01/19 00:03:57;;;;;;;0.80;0.80;;;;;;;-0.66;76.79;97512.28;299395;222;63004;-57
2021/01/19 00:08:58;;;;;;;0.80;0.80;;;;;;;-0.60;76.04;97506.13;299395;223;63009;-58
2021/01/19 00:13:58;;;;;;;0.80;0.80;;;;;;;-0.50;76.18;97500.37;299395;255;63005;-57
2021/01/19 00:19:00;;;;;;;0.80;0.80;;;;;;;-0.61;76.31;97506.34;299395;265;63008;-56
2021/01/19 00:24:04;;;;;;;0.80;0.80;;;;;;;-0.74;76.45;97510.69;299395;226;63004;-58
2021/01/19 00:29:06;;;;;;;0.80;0.80;;;;;;;-0.79;77.03;97505.12;299417;244;63021;-58
2021/01/19 00:34:10;;;;;;;0.80;0.80;;;;;;;-0.78;76.45;97504.12;299395;240;63004;-63
2021/01/19 00:39:11;;;;;;;0.80;0.80;;;;;;;-0.74;76.57;97505.34;299417;219;63009;-56
2021/01/19 00:44:12;;;;;;;0.80;0.80;;;;;;;-0.74;76.51;97505.34;299395;226;63005;-58
2021/01/19 00:49:13;;;;;;;0.80;0.80;;;;;;;-0.68;75.99;97493.84;299395;236;63008;-57
2021/01/19 00:54:14;;;;;;;0.80;0.80;;;;;;;-0.68;76.08;97495.69;299395;235;63004;-56
2021/01/19 00:59:15;;;;;;;0.80;0.80;;;;;;;-0.73;75.73;97485.66;299395;243;63009;-57
2021/01/19 01:04:16;;;;;;;0.80;0.80;;;;;;;-0.75;75.90;97481.56;299395;209;63004;-57
2021/01/19 01:09:18;;;;;;;0.80;0.80;;;;;;;-0.85;76.18;97481.16;299395;238;63009;-58
2021/01/19 01:14:19;;;;;;;0.80;0.80;;;;;;;-0.81;75.75;97477.87;299395;208;63005;-62
2021/01/19 01:19:20;;;;;;;0.80;0.80;;;;;;;-0.97;75.86;97475.63;299395;284;63008;-60
2021/01/19 01:24:20;;;;;;;0.80;0.80;;;;;;;-0.96;77.03;97473.78;299395;219;63004;-56
2021/01/19 01:29:21;;;;;;;0.80;0.80;;;;;;;-0.84;75.25;97478.28;299395;341;63009;-57
2021/01/19 01:34:22;;;;;;;3.50;3.20;;;;;;;-0.90;75.48;97473.78;299395;272;63004;-57
2021/01/19 01:39:23;;;;;;;0.80;0.80;;;;;;;-0.94;75.26;97467.22;299395;257;63009;-63
2021/01/19 01:44:24;;;;;;;0.80;0.80;;;;;;;-0.98;75.64;97470.50;299395;210;63005;-57
2021/01/19 01:49:25;;;;;;;0.80;0.80;;;;;;;-1.00;75.51;97460.03;299395;252;63008;-57
2021/01/19 01:54:26;;;;;;;0.80;0.80;;;;;;;-1.02;75.54;97448.78;299395;224;63004;-57
2021/01/19 01:59:30;;;;;;;0.80;0.80;;;;;;;-1.17;77.07;97440.19;299395;207;63009;-58
2021/01/19 02:04:34;;;;;;;0.80;0.80;;;;;;;-1.19;77.04;97420.94;299417;227;63004;-61
2021/01/19 02:09:41;;;;;;;0.80;0.80;;;;;;;-1.06;76.39;97408.44;299377;333;125009;-63
2021/01/19 02:14:57;;;;;;;0.80;0.80;;;;;;;-1.14;76.29;97405.16;299395;226;63005;-57
2021/01/19 02:20:45;;;;;;;0.80;0.80;;;;;;;-1.19;76.79;97404.97;299395;206;63009;-59
2021/01/19 02:26:23;;;;;;;0.80;0.80;;;;;;;-1.13;76.62;97382.84;299395;202;63018;-58
2021/01/19 02:31:55;;;;;;;0.80;0.80;;;;;;;-1.04;76.52;97377.06;299395;255;63004;-58
2021/01/19 02:37:07;;;;;;;0.80;0.80;;;;;;;-0.85;75.15;97375.41;299395;254;63005;-59
2021/01/19 02:42:12;;;;;;;0.80;0.80;;;;;;;-0.75;75.18;97370.47;299395;232;63009;-57
2021/01/19 02:47:14;;;;;;;0.80;0.80;;;;;;;-0.74;74.83;97372.09;299395;235;63012;-59
2021/01/19 02:52:17;;;;;;;0.80;0.80;;;;;;;-0.72;74.29;97374.56;299395;383;63009;-59
2021/01/19 02:57:59;;;;;;;0.80;0.80;;;;;;;-0.70;74.38;97375.19;299395;199;63005;-58
2021/01/19 03:03:04;;;;;;;0.80;0.80;;;;;;;-0.81;74.85;97373.16;299395;226;63018;-58
2021/01/19 03:08:08;;;;;;;0.80;0.80;;;;;;;-0.82;75.29;97375.00;299395;342;63009;-57
2021/01/19 03:13:13;;;;;;;0.80;0.80;;;;;;;-0.75;74.35;97365.13;299395;231;63005;-57
2021/01/19 03:18:15;;;;;;;0.80;0.80;;;;;;;-0.70;73.51;97352.00;299395;207;63009;-62
2021/01/19 03:23:16;;;;;;;0.80;0.80;;;;;;;-0.78;73.67;97354.91;299395;220;63000;-57
2021/01/19 03:28:22;;;;;;;0.80;0.80;;;;;;;-0.85;74.43;97354.09;299395;245;63009;-58
2021/01/19 03:33:24;;;;;;;0.80;0.80;;;;;;;-0.88;74.82;97351.03;299395;267;63004;-57
2021/01/19 03:38:28;;;;;;;0.80;0.80;;;;;;;-0.92;75.34;97353.28;299395;230;63009;-59
2021/01/19 03:43:29;;;;;;;0.80;0.80;;;;;;;-0.98;75.64;97354.13;299417;210;63005;-62
2021/01/19 03:48:30;;;;;;;0.80;0.80;;;;;;;-0.94;75.02;97352.69;299395;269;63008;-58
2021/01/19 03:53:34;;;;;;;0.90;0.90;;;;;;;-0.91;75.74;97349.59;299395;239;63004;-56
2021/01/19 03:58:39;;;;;;;0.80;0.80;;;;;;;-0.95;76.16;97343.06;299417;245;63009;-57
2021/01/19 04:03:40;;;;;;;0.80;0.80;;;;;;;-0.88;75.49;97327.06;299417;226;63004;-57
2021/01/19 04:08:41;;;;;;;0.80;0.80;;;;;;;-0.73;74.74;97330.28;299395;224;63009;-56
2021/01/19 04:13:42;;;;;;;0.70;0.70;;;;;;;-0.78;73.98;97320.25;299395;249;63005;-58
2021/01/19 04:18:43;;;;;;;0.80;0.80;;;;;;;-0.83;74.37;97306.75;299395;205;63008;-57
2021/01/19 04:23:44;;;;;;;0.80;0.80;;;;;;;-0.71;73.27;97286.41;299395;217;63004;-57
2021/01/19 04:28:45;;;;;;;0.80;0.80;;;;;;;-0.87;74.65;97302.06;299395;267;63026;-57
2021/01/19 04:33:46;;;;;;;0.80;0.80;;;;;;;-0.93;74.54;97293.03;299395;319;63004;-57
2021/01/19 04:38:47;;;;;;;0.80;0.80;;;;;;;-0.96;74.08;97293.47;299395;239;63009;-58
2021/01/19 04:43:50;;;;;;;0.80;0.80;;;;;;;-0.97;74.38;97275.03;299395;250;63005;-57
2021/01/19 04:48:53;;;;;;;0.80;0.80;;;;;;;-1.07;74.87;97265.66;299395;199;63009;-57
2021/01/19 04:54:06;;;;;;;0.80;0.80;;;;;;;-1.05;74.61;97263.59;299395;218;63010;-58
2021/01/19 04:59:12;;;;;;;0.80;0.80;;;;;;;-0.91;73.70;97260.88;299395;243;63009;-58
2021/01/19 05:04:53;;;;;;;0.80;0.80;;;;;;;-1.11;74.86;97256.44;299395;210;63005;-59
2021/01/19 05:10:12;;;;;;;0.80;0.80;;;;;;;-1.16;75.69;97250.13;299395;239;63009;-57
2021/01/19 05:15:15;;;;;;;0.80;0.80;;;;;;;-1.16;74.79;97234.13;299395;196;63004;-58
2021/01/19 05:20:21;;;;;;;0.80;0.80;;;;;;;-1.16;75.44;97228.81;299395;232;63009;-57
2021/01/19 05:25:23;;;;;;;0.80;0.80;;;;;;;-1.11;74.55;97226.34;299395;244;63005;-56
2021/01/19 05:30:25;;;;;;;0.80;0.80;;;;;;;-1.12;74.89;97208.72;299395;203;63009;-57
2021/01/19 05:35:26;;;;;;;0.80;0.80;;;;;;;-1.14;74.95;97189.47;299395;211;63005;-58
2021/01/19 05:40:28;;;;;;;0.80;0.80;;;;;;;-1.04;73.93;97157.91;299395;217;63009;-56
2021/01/19 05:45:29;;;;;;;0.90;0.90;;;;;;;-1.11;73.96;97167.75;299395;205;63004;-58
2021/01/19 05:50:35;;;;;;;0.90;0.90;;;;;;;-1.22;74.69;97165.75;299395;202;63009;-63
2021/01/19 05:55:36;;;;;;;0.80;0.80;;;;;;;-1.19;74.69;97157.34;299395;203;63011;-57
2021/01/19 06:00:41;;;;;;;0.80;0.80;;;;;;;-1.17;74.08;97158.75;299395;207;63009;-57
2021/01/19 06:05:42;;;;;;;;;;;;;;;-1.28;75.11;97155.94;299996;982;6000;-59
2021/01/19 06:10:44;;;;;;;0.80;0.80;;;;;;;-1.27;75.09;97160.25;299400;225;63005;-60
2021/01/19 06:15:45;;;;;;;1.85;1.75;;;;;;;-1.26;74.37;97156.53;299395;235;63009;-56
2021/01/19 06:20:46;;;;;;;0.82;0.82;;;;;;;-1.39;74.79;97128.94;299395;235;63005;-57
2021/01/19 06:25:47;;;;;;;0.80;0.80;;;;;;;-1.51;75.25;97133.31;299395;228;63009;-58
2021/01/19 06:30:48;;;;;;;0.80;0.80;;;;;;;-1.30;74.66;97120.72;299395;202;63020;-58
2021/01/19 06:35:54;;;;;;;0.80;0.80;;;;;;;-1.37;73.93;97108.25;299395;217;63009;-57
2021/01/19 06:41:00;;;;;;;0.90;0.90;;;;;;;-1.43;74.74;97127.75;299395;225;63005;-58
2021/01/19 06:46:08;;;;;;;0.90;0.90;;;;;;;-1.46;74.08;97133.50;299395;233;63009;-57
2021/01/19 06:51:13;;;;;;;0.90;0.90;;;;;;;-1.47;74.34;97134.53;299395;215;63009;-60
2021/01/19 06:56:16;;;;;;;0.80;0.80;;;;;;;-1.54;74.24;97120.44;299395;231;63009;-58
2021/01/19 07:01:19;;;;;;;0.90;0.90;;;;;;;-1.58;75.04;97115.72;299395;249;63004;-56
2021/01/19 07:06:44;;;;;;;0.90;0.90;;;;;;;-1.58;74.32;97107.75;299395;256;63009;-59
2021/01/19 07:12:09;;;;;;;0.80;0.80;;;;;;;-1.59;74.37;97106.13;299395;197;63005;-58
2021/01/19 07:17:17;;;;;;;0.80;0.80;;;;;;;-1.57;74.41;97104.87;299417;217;63008;-59
2021/01/19 07:23:00;;;;;;;0.80;0.80;;;;;;;-1.66;74.64;97106.13;299395;232;63004;-58
2021/01/19 07:28:03;;;;;;;0.80;0.80;;;;;;;-1.56;74.25;97095.88;299394;231;64013;-62
2021/01/19 07:33:07;;;;;;;0.80;0.80;;;;;;;-1.54;73.81;97077.03;299395;232;63005;-60
2021/01/19 07:38:08;;;;;;;0.90;0.90;;;;;;;-1.64;74.08;97072.16;299417;231;63009;-58
2021/01/19 07:43:16;;;;;;;0.80;0.80;;;;;;;-1.67;74.49;97077.09;299395;228;63005;-63
2021/01/19 07:48:31;;;;;;;0.80;0.80;;;;;;;-1.63;73.98;97068.47;299395;251;63009;-60
2021/01/19 07:53:32;;;;;;;0.90;0.90;;;;;;;-1.54;74.03;97064.53;299417;227;63004;-58
2021/01/19 07:58:38;;;;;;;0.98;0.98;;;;;;;-1.47;73.34;97073.31;299395;211;63013;-58
2021/01/19 08:03:41;;;;;;;0.80;0.80;;;;;;;-1.38;73.43;97050.72;299395;222;63005;-59
2021/01/19 08:08:42;;;;;;;0.88;0.88;;;;;;;-1.24;72.80;97034.69;299395;267;63008;-58
2021/01/19 08:13:43;;;;;;;0.80;0.80;;;;;;;-1.21;72.82;97028.94;299395;209;63012;-58
2021/01/19 08:18:47;;;;;;;0.80;0.80;;;;;;;-1.02;72.67;97022.63;299395;216;63009;-60
2021/01/19 08:23:48;;;;;;;0.80;0.80;;;;;;;-1.00;72.38;97020.56;299417;209;63004;-68
2021/01/19 08:28:49;;;;;;;0.80;0.80;;;;;;;-0.99;71.95;97011.56;299373;232;63009;-67
2021/01/19 08:33:51;;;;;;;0.80;0.80;;;;;;;-0.84;71.45;96993.41;299395;230;63009;-65
2021/01/19 08:38:55;;;;;;;0.80;0.80;;;;;;;-0.86;71.38;96979.50;299395;218;63008;-58
2021/01/19 08:44:04;;;;;;;0.80;0.80;;;;;;;-0.61;70.31;96982.13;299395;249;63004;-58
2021/01/19 08:49:08;;;;;;;0.80;0.80;;;;;;;-0.68;70.63;96979.53;299395;249;63009;-58
2021/01/19 08:54:10;;;;;;;0.90;0.90;;;;;;;-0.68;71.44;96992.84;299417;203;63005;-58
2021/01/19 08:59:15;;;;;;;0.80;0.80;;;;;;;-0.52;70.70;96974.66;299395;222;63009;-58
2021/01/19 09:04:27;;;;;;;0.80;0.80;;;;;;;-0.32;69.77;96969.94;299395;215;63005;-58
2021/01/19 09:09:28;;;;;;;0.80;0.80;;;;;;;-0.27;69.77;96983.41;299395;238;63009;-59
2021/01/19 09:14:30;;;;;;;0.80;0.80;;;;;;;-0.36;70.55;96987.44;299395;198;63009;-57
2021/01/19 09:19:31;;;;;;;0.80;0.80;;;;;;;-0.32;70.39;96995.78;299395;242;63009;-58
2021/01/19 09:24:36;;;;;;;0.80;0.80;;;;;;;-0.32;71.51;96985.13;299395;251;63005;-58
2021/01/19 09:29:37;;;;;;;0.80;0.80;;;;;;;-0.16;70.51;96958.69;299417;227;63009;-57
2021/01/19 09:34:40;;;;;;;0.80;0.80;;;;;;;-0.08;70.42;96953.06;299396;286;63000;-57
2021/01/19 09:39:44;;;;;;;0.80;0.80;;;;;;;0.04;69.51;96950.41;299440;219;63009;-60
2021/01/19 09:44:47;;;;;;;0.80;0.80;;;;;;;-0.02;69.97;96928.16;299418;196;63004;-58
2021/01/19 09:49:51;;;;;;;0.80;0.80;;;;;;;0.02;70.65;96922.34;299396;197;63009;-57
2021/01/19 09:54:52;;;;;;;0.80;0.80;;;;;;;0.14;69.99;96912.53;299418;253;63005;-58
2021/01/19 09:59:53;;;;;;;0.70;0.70;;;;;;;0.15;70.69;96900.84;299374;258;63009;-64
2021/01/19 10:05:02;;;;;;;0.70;0.70;;;;;;;0.27;70.59;96899.03;299396;214;63005;-58
2021/01/19 10:10:12;;;;;;;0.80;0.80;;;;;;;0.25;70.62;96877.09;299396;206;63009;-58
2021/01/19 10:15:15;;;;;;;0.80;0.80;;;;;;;0.22;70.91;96866.88;299396;242;63004;-59
2021/01/19 10:20:16;;;;;;;0.80;0.80;;;;;;;0.33;70.62;96855.41;299397;227;63009;-58
2021/01/19 10:25:37;;;;;;;0.80;0.80;;;;;;;0.37;71.05;96851.22;299397;247;63005;-59
2021/01/19 10:30:46;;;;;;;0.80;0.80;;;;;;;0.43;70.50;96847.63;299396;330;63008;-59
2021/01/19 10:35:49;;;;;;;0.80;0.80;;;;;;;0.42;70.40;96838.00;299396;245;63004;-57
2021/01/19 10:40:52;;;;;;;0.80;0.80;;;;;;;0.39;71.50;96829.66;299396;250;63009;-63
2021/01/19 10:45:53;;;;;;;0.80;0.80;;;;;;;0.47;71.21;96835.47;299396;231;63005;-59
2021/01/19 10:50:54;;;;;;;0.80;0.80;;;;;;;0.70;70.78;96812.47;299396;257;63009;-60
2021/01/19 10:55:55;;;;;;;0.75;0.75;;;;;;;0.66;70.74;96806.81;299396;212;63005;-57
2021/01/19 11:00:57;;;;;;;0.80;0.80;;;;;;;0.69;70.83;96794.88;299396;263;63009;-59
2021/01/19 11:05:58;;;;;;;0.70;0.70;;;;;;;0.76;70.36;96792.87;299396;212;63004;-59
2021/01/19 11:10:59;;;;;;;0.70;0.70;;;;;;;0.80;70.16;96775.34;299397;224;63009;-60
2021/01/19 11:16:00;;;;;;;0.70;0.70;;;;;;;0.82;69.82;96760.69;299397;234;63001;-58
2021/01/19 11:21:02;;;;;;;0.85;0.85;;;;;;;0.92;69.62;96747.56;299395;241;63023;-58
2021/01/19 11:26:02;;;;;;;0.80;0.80;;;;;;;0.93;69.04;96735.03;299395;215;63005;-58
2021/01/19 11:31:07;;;;;;;0.80;0.80;;;;;;;0.96;68.77;96730.03;299395;215;63009;-63
2021/01/19 11:36:09;;;;;;;0.80;0.80;;;;;;;0.95;68.68;96733.75;299417;224;63004;-59
2021/01/19 11:41:14;;;;;;;0.80;0.80;;;;;;;1.02;68.78;96725.59;299395;262;63009;-58
2021/01/19 11:46:24;;;;;;;0.80;0.80;;;;;;;1.16;67.90;96726.94;299395;197;63005;-59
2021/01/19 11:51:33;;;;;;;0.80;0.80;;;;;;;1.23;67.41;96719.59;299395;198;63009;-57
2021/01/19 11:56:48;;;;;;;0.80;0.80;;;;;;;1.17;67.89;96723.22;299395;235;63005;-58
2021/01/19 12:01:54;;;;;;;0.80;0.80;;;;;;;1.36;67.25;96709.69;299417;310;63009;-61
2021/01/19 12:06:55;;;;;;;0.80;0.80;;;;;;;1.32;67.87;96699.47;299395;283;63004;-58
2021/01/19 12:11:56;;;;;;;0.80;0.80;;;;;;;1.34;68.01;96692.03;299395;212;63009;-58
2021/01/19 12:16:58;;;;;;;0.80;0.80;;;;;;;1.67;65.77;96680.59;299395;207;63005;-58
2021/01/19 12:22:00;;;;;;;0.70;0.70;;;;;;;1.66;66.94;96678.16;299395;245;63008;-63
2021/01/19 12:27:01;;;;;;;0.80;0.80;;;;;;;1.68;66.98;96665.34;299395;281;63004;-57
2021/01/19 12:32:10;;;;;;;0.80;0.80;;;;;;;1.83;65.58;96667.44;299395;198;63009;-59
2021/01/19 12:37:11;;;;;;;0.80;0.80;;;;;;;1.97;65.34;96653.50;299395;361;63005;-57
2021/01/19 12:42:12;;;;;;;0.70;0.70;;;;;;;2.12;64.83;96644.06;299395;257;63009;-59
2021/01/19 12:47:15;;;;;;;0.80;0.80;;;;;;;2.11;65.16;96629.88;299395;231;63005;-59
2021/01/19 12:52:17;;;;;;;0.80;0.80;;;;;;;2.10;66.14;96622.91;299395;300;63009;-64
2021/01/19 12:57:18;;;;;;;0.70;0.70;;;;;;;2.20;66.43;96619.56;299395;214;63004;-58
2021/01/19 13:02:19;;;;;;;0.80;0.80;;;;;;;2.13;67.77;96611.72;299395;296;63009;-57
2021/01/19 13:07:23;;;;;;;0.80;0.80;;;;;;;2.17;67.84;96610.16;299395;228;63005;-57
2021/01/19 13:12:25;;;;;;;0.80;0.80;;;;;;;2.13;67.65;96605.56;299417;245;63009;-59
2021/01/19 13:17:26;;;;;;;0.70;0.70;;;;;;;2.16;67.60;96607.75;299373;349;63005;-58
2021/01/19 13:22:28;;;;;;;0.80;0.80;;;;;;;2.28;67.88;96605.78;299395;296;63009;-57
2021/01/19 13:27:28;;;;;;;0.70;0.70;;;;;;;2.36;68.48;96602.69;299394;203;64008;-58
2021/01/19 13:32:30;;;;;;;0.70;0.70;;;;;;;2.27;68.77;96604.97;299395;328;63009;-57
2021/01/19 13:37:31;;;;;;;0.70;0.70;;;;;;;2.38;68.53;96597.88;299395;330;63005;-59
2021/01/19 13:42:33;;;;;;;0.80;0.80;;;;;;;2.43;68.73;96597.94;299395;363;63009;-59
2021/01/19 13:47:35;;;;;;;0.70;0.70;;;;;;;2.52;68.59;96590.28;299395;276;63005;-58
2021/01/19 13:52:39;;;;;;;0.80;0.80;;;;;;;2.51;68.55;96594.00;299395;258;63009;-57
2021/01/19 13:57:41;;;;;;;0.80;0.80;;;;;;;2.54;68.45;96583.62;299417;266;63004;-55
2021/01/19 14:02:42;;;;;;;0.80;0.80;;;;;;;2.59;67.54;96586.37;299395;252;63009;-57
2021/01/19 14:07:43;;;;;;;0.70;0.70;;;;;;;2.71;66.45;96593.47;299395;319;63005;-61
2021/01/19 14:12:46;;;;;;;0.80;0.80;;;;;;;2.68;66.26;96587.56;299395;315;63009;-60
2021/01/19 14:17:47;;;;;;;0.80;0.80;;;;;;;2.75;66.18;96583.88;299395;224;63005;-58
2021/01/19 14:22:48;;;;;;;0.70;0.70;;;;;;;2.77;66.01;96589.78;299395;197;63009;-57
2021/01/19 14:27:49;;;;;;;0.70;0.70;;;;;;;2.81;65.80;96590.88;299395;255;63004;-61
2021/01/19 14:32:50;;;;;;;0.80;0.80;;;;;;;2.82;65.89;96601.34;299395;329;63009;-56
2021/01/19 14:37:51;;;;;;;0.70;0.70;;;;;;;2.74;66.62;96599.13;299395;288;63019;-60
2021/01/19 14:42:54;;;;;;;0.70;0.70;;;;;;;2.67;67.13;96612.72;299395;236;63008;-59
2021/01/19 14:47:55;;;;;;;0.70;0.70;;;;;;;2.77;66.90;96616.59;299395;221;63004;-59
2021/01/19 14:52:56;;;;;;;0.70;0.70;;;;;;;2.76;67.28;96623.00;299394;333;64009;-58
2021/01/19 14:57:57;;;;;;;0.70;0.70;;;;;;;2.65;67.94;96627.41;299395;202;63004;-61
2021/01/19 15:02:58;;;;;;;0.80;0.80;;;;;;;2.72;67.60;96643.31;299395;260;63009;-55
2021/01/19 15:08:00;;;;;;;0.70;0.70;;;;;;;2.72;68.40;96643.31;299394;313;64005;-60
2021/01/19 15:13:03;;;;;;;0.70;0.70;;;;;;;2.76;68.20;96637.22;299395;328;63008;-59
2021/01/19 15:18:05;;;;;;;0.70;0.70;;;;;;;2.82;68.16;96643.41;299377;302;125004;-56
2021/01/19 15:23:09;;;;;;;0.70;0.70;;;;;;;2.76;68.56;96650.59;299395;203;63009;-56
2021/01/19 15:28:10;;;;;;;0.70;0.70;;;;;;;2.68;68.82;96657.19;299417;227;63004;-59
2021/01/19 15:33:12;;;;;;;0.80;0.80;;;;;;;2.85;68.45;96650.97;299373;338;63009;-60
2021/01/19 15:38:13;;;;;;;0.70;0.70;;;;;;;2.67;69.30;96657.44;299395;245;63009;-59
2021/01/19 15:43:14;;;;;;;0.70;0.70;;;;;;;2.63;69.17;96657.13;299395;257;63008;-56
2021/01/19 15:48:15;;;;;;;0.70;0.70;;;;;;;2.74;68.81;96657.28;299395;210;63004;-55
2021/01/19 15:53:16;;;;;;;0.70;0.70;;;;;;;2.63;69.07;96650.97;299395;208;63009;-59
2021/01/19 15:58:17;;;;;;;0.70;0.70;;;;;;;2.57;69.03;96655.44;299395;273;63001;-58
2021/01/19 16:03:19;;;;;;;0.70;0.70;;;;;;;2.54;69.21;96650.56;299395;199;63009;-60
2021/01/19 16:08:20;;;;;;;0.70;0.70;;;;;;;2.39;70.13;96649.56;299395;287;63005;-59
2021/01/19 16:13:21;;;;;;;0.70;0.70;;;;;;;2.39;70.11;96655.75;299395;209;63009;-58
2021/01/19 16:18:22;;;;;;;0.70;0.70;;;;;;;2.23;70.58;96653.88;299395;197;63004;-58
2021/01/19 16:23:23;;;;;;;0.70;0.70;;;;;;;2.23;70.61;96664.59;299395;242;63009;-59
2021/01/19 16:28:24;;;;;;;0.70;0.70;;;;;;;2.19;70.76;96655.44;299395;199;63005;-58
2021/01/19 16:33:25;;;;;;;0.80;0.80;;;;;;;2.20;70.56;96657.06;299395;227;63009;-58
2021/01/19 16:38:27;;;;;;;0.70;0.70;;;;;;;2.18;70.76;96661.84;299395;230;63005;-58
2021/01/19 16:43:31;;;;;;;0.70;0.70;;;;;;;2.04;71.20;96673.94;299395;271;63009;-59
2021/01/19 16:48:33;;;;;;;0.77;0.77;;;;;;;2.01;70.86;96670.72;299417;285;63012;-59
2021/01/19 16:53:35;;;;;;;0.70;0.70;;;;;;;2.03;70.75;96669.66;299395;203;63009;-58
2021/01/19 16:58:36;;;;;;;0.70;0.70;;;;;;;2.17;70.35;96662.91;299395;209;63005;-56
2021/01/19 17:03:38;;;;;;;0.70;0.70;;;;;;;2.00;71.54;96671.75;299395;332;63009;-57
2021/01/19 17:08:39;;;;;;;0.70;0.70;;;;;;;2.05;70.83;96676.38;299395;208;63005;-57
2021/01/19 17:13:42;;;;;;;0.80;0.80;;;;;;;2.09;71.05;96674.00;299395;291;63009;-56
2021/01/19 17:18:43;;;;;;;0.70;0.70;;;;;;;2.10;71.62;96678.31;299395;368;63006;-58
2021/01/19 17:23:44;;;;;;;0.70;0.70;;;;;;;2.10;71.85;96670.28;299395;212;63009;-59
2021/01/19 17:28:45;;;;;;;0.70;0.70;;;;;;;2.07;72.13;96662.75;299395;237;63005;-58
2021/01/19 17:33:49;;;;;;;0.70;0.70;;;;;;;2.10;72.60;96657.69;299395;230;63009;-59
2021/01/19 17:38:53;;;;;;;0.80;0.80;;;;;;;2.33;73.94;96667.44;299417;228;63005;-58
2021/01/19 17:43:54;;;;;;;0.80;0.80;;;;;;;2.32;75.54;96665.81;299395;237;63009;-60
2021/01/19 17:48:55;;;;;;;0.80;0.80;;;;;;;2.32;76.27;96665.81;299373;254;63004;-58
2021/01/19 17:53:56;;;;;;;0.70;0.70;;;;;;;2.28;76.06;96651.28;299395;250;63018;-58
2021/01/19 17:58:58;;;;;;;0.70;0.70;;;;;;;2.32;76.53;96655.09;299395;277;63005;-59
2021/01/19 18:03:59;;;;;;;0.70;0.70;;;;;;;2.31;75.68;96648.94;299395;224;63008;-59
2021/01/19 18:09:05;;;;;;;0.70;0.70;;;;;;;2.33;74.69;96648.69;299395;222;63004;-59
2021/01/19 18:14:06;;;;;;;0.70;0.70;;;;;;;2.16;74.22;96650.56;299395;364;63009;-58
2021/01/19 18:19:12;;;;;;;0.70;0.70;;;;;;;2.17;73.29;96636.94;299395;246;63004;-58
2021/01/19 18:24:15;;;;;;;0.70;0.70;;;;;;;2.23;72.73;96640.50;299395;202;63009;-61
2021/01/19 18:29:22;;;;;;;0.70;0.70;;;;;;;2.19;72.75;96631.34;299395;197;63005;-59
2021/01/19 18:34:25;;;;;;;0.70;0.70;;;;;;;2.24;71.74;96623.38;299395;302;63008;-60
2021/01/19 18:39:29;;;;;;;0.70;0.70;;;;;;;2.26;72.45;96631.97;299395;202;63004;-60
2021/01/19 18:44:30;;;;;;;0.70;0.70;;;;;;;2.22;71.63;96620.12;299417;205;63009;-59
2021/01/19 18:49:31;;;;;;;0.70;0.70;;;;;;;2.16;71.07;96613.09;299395;307;63004;-58
2021/01/19 18:54:34;;;;;;;0.70;0.70;;;;;;;2.26;70.01;96605.22;299395;286;63009;-58
2021/01/19 18:59:35;;;;;;;0.70;0.70;;;;;;;2.25;70.32;96603.59;299395;249;63010;-59
2021/01/19 19:04:38;;;;;;;0.73;0.73;;;;;;;2.28;69.22;96597.75;299395;345;63009;-58
2021/01/19 19:09:39;;;;;;;0.70;0.70;;;;;;;2.32;68.66;96596.19;299395;272;63004;-59
2021/01/19 19:14:40;;;;;;;0.70;0.70;;;;;;;2.40;68.15;96593.09;299395;240;63009;-59
2021/01/19 19:19:41;;;;;;;0.70;0.70;;;;;;;2.29;68.75;96607.41;299394;202;64009;-59
2021/01/19 19:24:43;;;;;;;0.80;0.80;;;;;;;2.29;68.47;96612.75;299395;255;63009;-60
2021/01/19 19:29:44;;;;;;;0.70;0.70;;;;;;;2.33;67.36;96587.09;299395;229;63005;-59
2021/01/19 19:34:45;;;;;;;0.70;0.70;;;;;;;2.31;67.00;96575.84;299395;199;63009;-59
2021/01/19 19:39:52;;;;;;;0.70;0.70;;;;;;;2.28;67.18;96576.31;299395;245;63004;-59
2021/01/19 19:44:56;;;;;;;0.70;0.70;;;;;;;2.21;67.30;96583.72;299395;298;63005;-59
2021/01/19 19:49:58;;;;;;;0.80;0.80;;;;;;;2.26;66.82;96567.72;299417;260;63005;-58
2021/01/19 19:54:59;;;;;;;0.70;0.70;;;;;;;2.29;66.45;96585.97;299373;315;63009;-59
2021/01/19 20:00:03;;;;;;;0.70;0.70;;;;;;;2.27;66.23;96561.31;299395;228;63013;-57
2021/01/19 20:05:05;;;;;;;0.70;0.70;;;;;;;2.24;65.91;96567.16;299417;213;63009;-58
2021/01/19 20:10:07;;;;;;;0.70;0.70;;;;;;;2.34;65.55;96567.31;299395;202;63004;-59
2021/01/19 20:15:09;;;;;;;0.70;0.70;;;;;;;2.18;65.77;96568.16;299395;224;63009;-58
2021/01/19 20:20:13;;;;;;;0.70;0.70;;;;;;;2.19;65.97;96577.81;299395;246;63005;-58
2021/01/19 20:25:14;;;;;;;0.70;0.70;;;;;;;2.17;65.45;96566.53;299479;341;125008;-58
2021/01/19 20:30:18;;;;;;;0.70;0.70;;;;;;;2.30;63.43;96560.81;299395;230;63004;-58
2021/01/19 20:35:19;;;;;;;0.70;0.70;;;;;;;2.25;64.28;96571.47;299395;240;63009;-59
2021/01/19 20:40:20;;;;;;;0.70;0.70;;;;;;;2.29;63.44;96559.22;299395;359;63005;-58
2021/01/19 20:45:21;;;;;;;0.70;0.70;;;;;;;2.40;62.05;96554.81;299395;296;63009;-59
2021/01/19 20:50:22;;;;;;;0.70;0.70;;;;;;;2.31;63.08;96562.44;299395;223;63005;-57
2021/01/19 20:55:26;;;;;;;0.70;0.70;;;;;;;2.30;62.67;96556.28;299395;334;63008;-60
2021/01/19 21:00:27;;;;;;;0.70;0.70;;;;;;;2.30;62.33;96534.88;299417;305;63004;-58
2021/01/19 21:05:28;;;;;;;0.70;0.70;;;;;;;2.18;62.54;96530.69;299395;221;63009;-58
2021/01/19 21:10:29;;;;;;;0.70;0.70;;;;;;;2.40;61.32;96534.19;299395;224;63004;-58
2021/01/19 21:15:31;;;;;;;0.70;0.70;;;;;;;2.33;62.24;96529.00;299395;283;63009;-59
2021/01/19 21:20:32;;;;;;;0.70;0.70;;;;;;;2.32;60.61;96521.22;299394;229;64005;-57
2021/01/19 21:25:37;;;;;;;0.70;0.70;;;;;;;2.35;61.21;96507.34;299395;293;63008;-59
2021/01/19 21:30:43;;;;;;;0.70;0.70;;;;;;;2.32;61.51;96510.53;299417;227;63004;-57
2021/01/19 21:35:47;;;;;;;0.70;0.70;;;;;;;2.20;61.19;96507.16;299373;254;63009;-57
2021/01/19 21:40:48;;;;;;;0.70;0.70;;;;;;;2.13;61.44;96522.56;299417;196;63005;-58
2021/01/19 21:45:49;;;;;;;0.70;0.70;;;;;;;2.00;62.09;96518.41;299395;301;63009;-58
2021/01/19 21:50:50;;;;;;;0.70;0.70;;;;;;;2.03;61.91;96522.47;299395;261;63005;-59
2021/01/19 21:55:54;;;;;;;0.70;0.70;;;;;;;1.99;62.24;96517.59;299395;205;63009;-59
2021/01/19 22:00:55;;;;;;;0.70;0.70;;;;;;;2.00;60.96;96508.53;299417;289;63004;-58
2021/01/19 22:05:58;;;;;;;0.70;0.70;;;;;;;1.95;61.73;96492.41;299396;202;63005;-57
2021/01/19 22:10:59;;;;;;;0.70;0.70;;;;;;;2.04;60.67;96491.97;299396;247;63010;-60
2021/01/19 22:16:00;;;;;;;0.70;0.70;;;;;;;2.09;60.62;96483.97;299396;215;63009;-59
2021/01/19 22:21:02;;;;;;;0.70;0.70;;;;;;;1.99;61.10;96485.50;299396;242;63005;-57
2021/01/19 22:26:05;;;;;;;0.70;0.70;;;;;;;2.03;60.80;96487.69;299396;282;63009;-55
2021/01/19 22:31:08;;;;;;;0.70;0.70;;;;;;;2.12;60.25;96494.19;299396;277;63004;-57
2021/01/19 22:36:09;;;;;;;0.70;0.70;;;;;;;2.05;60.68;96482.88;299396;233;63009;-59
2021/01/19 22:41:11;;;;;;;0.70;0.70;;;;;;;2.04;61.04;96486.63;299396;207;63005;-56
2021/01/19 22:46:12;;;;;;;0.75;0.75;;;;;;;2.06;61.36;96479.16;299396;229;63008;-58
2021/01/19 22:51:14;;;;;;;0.70;0.70;;;;;;;1.96;61.85;96475.28;299397;196;63004;-58
2021/01/19 22:56:18;;;;;;;0.70;0.70;;;;;;;1.94;61.72;96480.06;299397;236;63009;-59
2021/01/19 23:01:20;;;;;;;0.70;0.70;;;;;;;1.92;62.11;96484.88;299418;323;63004;-58
2021/01/19 23:06:21;;;;;;;0.70;0.70;;;;;;;1.98;62.17;96483.06;299396;249;63009;-57
2021/01/19 23:11:21;;;;;;;0.70;0.70;;;;;;;1.82;63.00;96478.56;299396;275;63005;-59
2021/01/19 23:16:23;;;;;;;0.70;0.70;;;;;;;1.87;62.61;96482.13;299396;355;63008;-59
2021/01/19 23:21:24;;;;;;;0.70;0.70;;;;;;;1.84;63.32;96477.25;299396;308;63004;-57
2021/01/19 23:26:25;;;;;;;0.70;0.70;;;;;;;1.83;63.64;96489.03;299396;197;63014;-59
2021/01/19 23:31:26;;;;;;;0.70;0.70;;;;;;;1.80;64.41;96497.53;299396;206;63004;-60
2021/01/19 23:36:26;;;;;;;0.70;0.70;;;;;;;1.76;65.17;96495.59;299395;331;64009;-58
2021/01/19 23:41:31;;;;;;;0.70;0.70;;;;;;;1.69;65.52;96482.44;299397;204;63005;-59
2021/01/19 23:46:32;;;;;;;0.70;0.70;;;;;;;1.77;65.63;96470.47;299419;307;63008;-58
2021/01/19 23:51:33;;;;;;;0.77;0.77;;;;;;;1.85;65.51;96454.81;299395;207;63004;-57
2021/01/19 23:56:34;;;;;;;0.70;0.70;;;;;;;1.90;65.10;96449.53;299395;272;63009;-54
